Time;durP1;ratioP1;P1;durP2;ratioP2;P2;SDS_P1;SDS_P2;PMS_P1;PMS_P2;Temp;Humidity;BMP_temperature;BMP_pressure;BME280_temperature;BME280_humidity;BME280_pressure;Samples;Min_cycle;Max_cycle;Signal;HPM_P1;HPM_P2
2023/07/05 00:00:13;;;;;;;7.97;5.82;;;16.80;99.90;;;;;;5014378;28;20534;-83
2023/07/05 00:02:41;;;;;;;8.57;5.53;;;16.80;99.90;;;;;;5014009;28;20230;-83
2023/07/05 00:05:09;;;;;;;8.32;5.57;;;16.80;99.90;;;;;;5013643;28;20309;-83
2023/07/05 00:07:36;;;;;;;7.72;5.18;;;16.70;99.90;;;;;;5030947;28;20237;-85
2023/07/05 00:10:03;;;;;;;8.88;5.40;;;16.80;99.90;;;;;;5033175;28;20194;-84
2023/07/05 00:12:31;;;;;;;7.22;5.35;;;16.70;99.90;;;;;;5032649;28;20257;-84
2023/07/05 00:14:58;;;;;;;8.77;5.78;;;16.70;99.90;;;;;;5015766;28;20306;-82
2023/07/05 00:17:25;;;;;;;9.57;5.88;;;16.60;99.90;;;;;;5013470;28;20202;-83
2023/07/05 00:19:54;;;;;;;8.73;5.30;;;16.60;99.90;;;;;;5012809;28;20581;-81
2023/07/05 00:22:21;;;;;;;8.43;6.13;;;16.60;99.90;;;;;;5013288;28;20194;-83
2023/07/05 00:24:48;;;;;;;8.65;6.07;;;16.50;99.90;;;;;;5015827;28;20234;-83
2023/07/05 00:27:15;;;;;;;7.78;6.13;;;16.50;99.90;;;;;;5016837;28;20618;-83
2023/07/05 00:29:42;;;;;;;9.98;5.95;;;16.50;99.90;;;;;;5017388;28;20207;-81
2023/07/05 00:32:09;;;;;;;8.52;5.80;;;16.40;99.90;;;;;;5016617;28;20203;-81
2023/07/05 00:34:36;;;;;;;9.48;6.13;;;16.50;99.90;;;;;;5016918;28;20191;-83
2023/07/05 00:37:04;;;;;;;9.27;5.35;;;16.40;99.90;;;;;;5017002;28;20227;-83
2023/07/05 00:39:31;;;;;;;9.20;6.07;;;16.40;99.90;;;;;;5016704;28;20235;-82
2023/07/05 00:41:58;;;;;;;8.07;6.32;;;16.40;99.90;;;;;;5020693;28;20210;-82
2023/07/05 00:44:27;;;;;;;9.68;6.70;;;16.40;99.90;;;;;;5029307;28;20309;-83
2023/07/05 00:46:58;;;;;;;8.80;6.33;;;16.40;99.90;;;;;;5016021;28;20533;-83
2023/07/05 00:49:28;;;;;;;11.55;7.07;;;16.40;99.90;;;;;;5017021;28;20219;-82
2023/07/05 00:52:01;;;;;;;10.85;7.20;;;16.40;99.90;;;;;;5016963;28;20662;-83
2023/07/05 00:54:35;;;;;;;9.30;6.35;;;16.40;99.90;;;;;;5017039;28;20282;-82
2023/07/05 00:57:07;;;;;;;10.30;7.18;;;16.40;99.90;;;;;;5017258;28;20231;-85
2023/07/05 00:59:39;;;;;;;11.63;7.22;;;16.30;99.90;;;;;;5017535;28;20214;-84
2023/07/05 01:02:07;;;;;;;11.38;7.30;;;16.30;99.90;;;;;;5017405;28;20226;-87
2023/07/05 01:04:34;;;;;;;11.27;7.55;;;16.20;99.90;;;;;;5017408;28;20744;-85
2023/07/05 01:07:02;;;;;;;11.07;7.85;;;16.20;99.90;;;;;;5017357;28;20219;-85
2023/07/05 01:09:32;;;;;;;11.88;9.05;;;16.30;99.90;;;;;;5017362;28;20280;-84
2023/07/05 01:12:09;;;;;;;11.57;8.80;;;16.30;99.90;;;;;;5016572;28;20207;-85
2023/07/05 01:14:43;;;;;;;13.88;9.38;;;16.20;99.90;;;;;;5016326;28;20278;-84
2023/07/05 01:17:19;;;;;;;11.75;8.57;;;16.20;99.90;;;;;;5048700;28;20210;-84
2023/07/05 01:19:59;;;;;;;14.80;9.57;;;16.20;99.90;;;;;;5056995;28;20554;-86
2023/07/05 01:22:51;;;;;;;13.13;9.15;;;16.20;99.90;;;;;;5035752;28;20254;-87
2023/07/05 01:25:39;;;;;;;12.15;8.82;;;16.20;99.90;;;;;;5013680;28;20310;-83
2023/07/05 01:28:29;;;;;;;10.57;8.45;;;16.20;99.90;;;;;;5016311;28;20211;-84
2023/07/05 01:31:22;;;;;;;18.60;9.20;;;16.20;99.90;;;;;;5016463;28;20320;-84
2023/07/05 01:33:55;;;;;;;11.40;8.83;;;16.20;99.90;;;;;;4981128;28;20671;-84
2023/07/05 01:36:23;;;;;;;14.10;8.60;;;16.20;99.90;;;;;;5015852;28;20274;-84
2023/07/05 01:38:50;;;;;;;11.60;8.70;;;16.20;99.90;;;;;;5017021;28;20578;-83
2023/07/05 01:41:17;;;;;;;8.57;7.57;;;16.20;99.90;;;;;;5016694;28;20199;-85
2023/07/05 01:43:45;;;;;;;10.32;7.75;;;16.20;99.90;;;;;;5016272;28;20318;-91
2023/07/05 01:46:23;;;;;;;10.23;7.43;;;16.20;99.90;;;;;;5019401;28;20655;-89
2023/07/05 01:49:13;;;;;;;11.68;6.65;;;16.20;99.90;;;;;;5016098;28;20689;-82
2023/07/05 01:51:46;;;;;;;7.75;5.95;;;16.20;99.90;;;;;;5016173;28;20207;-86
2023/07/05 01:54:19;;;;;;;7.65;5.90;;;16.20;99.90;;;;;;5016562;28;20191;-85
2023/07/05 01:56:52;;;;;;;7.95;4.95;;;16.20;99.90;;;;;;5016526;28;20253;-82
2023/07/05 01:59:22;;;;;;;8.37;4.73;;;16.20;99.90;;;;;;5016291;28;20196;-86
2023/07/05 02:01:52;;;;;;;7.95;4.80;;;16.20;99.90;;;;;;5016499;28;20783;-85
2023/07/05 02:04:23;;;;;;;6.17;4.53;;;16.20;99.90;;;;;;5016185;28;20216;-83
2023/07/05 02:06:52;;;;;;;5.72;3.90;;;16.20;99.90;;;;;;5015457;28;20360;-89
2023/07/05 02:09:19;;;;;;;8.00;4.40;;;16.20;99.90;;;;;;5017393;28;20242;-85
2023/07/05 02:11:46;;;;;;;6.32;4.40;;;16.20;99.90;;;;;;5014763;28;20238;-82
2023/07/05 02:14:14;;;;;;;7.27;4.17;;;16.20;99.90;;;;;;5015683;28;20199;-84
2023/07/05 02:16:41;;;;;;;8.18;4.22;;;16.20;99.90;;;;;;5015469;28;20259;-85
2023/07/05 02:19:08;;;;;;;8.25;3.67;;;16.10;99.90;;;;;;5015924;28;20203;-87
2023/07/05 02:21:37;;;;;;;7.10;3.60;;;16.10;99.90;;;;;;5015373;28;20258;-84
2023/07/05 02:24:05;;;;;;;8.02;2.90;;;16.10;99.90;;;;;;5015737;28;20255;-87
2023/07/05 02:26:33;;;;;;;8.98;3.60;;;16.10;99.90;;;;;;5015207;28;20235;-84
2023/07/05 02:29:01;;;;;;;5.20;3.20;;;16.00;99.90;;;;;;5015322;28;20219;-89
2023/07/05 02:31:29;;;;;;;8.23;3.22;;;15.90;99.90;;;;;;5015314;28;20203;-82
2023/07/05 02:33:56;;;;;;;10.88;3.38;;;15.90;99.90;;;;;;5015998;28;20207;-84
2023/07/05 02:36:23;;;;;;;8.18;3.05;;;15.90;99.90;;;;;;5015682;28;20227;-85
2023/07/05 02:38:53;;;;;;;13.30;2.95;;;15.90;99.90;;;;;;5053085;28;20293;-90
2023/07/05 02:41:20;;;;;;;6.32;3.20;;;15.80;99.90;;;;;;5047793;28;20256;-90
2023/07/05 02:43:48;;;;;;;10.25;2.95;;;15.80;99.90;;;;;;5034788;28;20606;-89
2023/07/05 02:46:15;;;;;;;7.97;2.90;;;15.80;99.90;;;;;;5015756;28;20250;-88
2023/07/05 02:48:42;;;;;;;13.73;3.88;;;15.80;99.90;;;;;;5014649;28;20231;-85
2023/07/05 02:51:09;;;;;;;6.00;2.72;;;15.80;99.90;;;;;;5014987;28;20244;-85
2023/07/05 02:53:35;;;;;;;6.80;2.70;;;15.80;99.90;;;;;;5014902;28;20572;-82
2023/07/05 02:56:05;;;;;;;9.50;3.15;;;15.80;99.90;;;;;;5014704;28;20686;-86
2023/07/05 02:58:32;;;;;;;6.83;2.67;;;15.80;99.90;;;;;;5015189;28;20207;-84
2023/07/05 03:00:58;;;;;;;6.77;3.17;;;15.80;99.90;;;;;;5016540;28;20290;-88
2023/07/05 03:03:26;;;;;;;10.13;3.00;;;15.80;99.90;;;;;;5034081;28;20194;-84
2023/07/05 03:05:58;;;;;;;8.93;2.63;;;15.70;99.90;;;;;;5033572;28;20264;-84
2023/07/05 03:08:27;;;;;;;7.22;2.72;;;15.70;99.90;;;;;;5025784;28;20219;-85
2023/07/05 03:10:55;;;;;;;8.37;3.10;;;15.60;99.90;;;;;;5014681;28;20195;-86
2023/07/05 03:13:27;;;;;;;4.37;2.40;;;15.60;99.90;;;;;;5014825;28;20204;-91
2023/07/05 03:15:54;;;;;;;7.97;2.80;;;15.50;99.90;;;;;;5014617;28;20203;-89
2023/07/05 03:18:22;;;;;;;5.67;2.50;;;15.50;99.90;;;;;;5014799;28;20298;-87
2023/07/05 03:20:49;;;;;;;7.75;3.35;;;15.50;99.90;;;;;;5014829;28;20338;-88
2023/07/05 03:23:17;;;;;;;8.23;3.03;;;15.50;99.90;;;;;;5013885;28;20642;-88
2023/07/05 03:25:54;;;;;;;9.93;3.47;;;15.50;99.90;;;;;;5013683;28;20266;-86
2023/07/05 03:28:23;;;;;;;5.97;2.57;;;15.40;99.90;;;;;;5013963;28;20199;-87
2023/07/05 03:30:55;;;;;;;3.80;2.35;;;15.40;99.90;;;;;;5014459;28;20247;-87
2023/07/05 03:33:22;;;;;;;8.43;2.60;;;15.40;99.90;;;;;;5014800;28;20195;-86
2023/07/05 03:35:55;;;;;;;3.73;2.47;;;15.40;99.90;;;;;;5014473;28;20231;-86
2023/07/05 03:38:22;;;;;;;4.93;2.33;;;15.30;99.90;;;;;;5014764;28;20226;-86
2023/07/05 03:40:57;;;;;;;6.23;3.17;;;15.30;99.90;;;;;;5014921;28;20203;-88
2023/07/05 03:43:26;;;;;;;6.63;3.10;;;15.30;99.90;;;;;;5014460;28;20281;-84
2023/07/05 03:45:53;;;;;;;5.97;3.20;;;15.30;99.90;;;;;;5014631;28;20321;-84
2023/07/05 03:48:20;;;;;;;4.50;2.90;;;15.30;99.90;;;;;;5014745;28;20267;-87
2023/07/05 03:50:47;;;;;;;4.80;3.27;;;15.30;99.90;;;;;;5014470;28;20191;-84
2023/07/05 03:53:15;;;;;;;5.63;3.10;;;15.30;99.90;;;;;;5033716;28;20249;-87
2023/07/05 03:55:42;;;;;;;5.63;3.40;;;15.20;99.90;;;;;;5017987;28;20245;-89
2023/07/05 03:58:09;;;;;;;6.10;3.37;;;15.20;99.90;;;;;;5013883;28;20758;-88
2023/07/05 04:00:37;;;;;;;5.97;3.50;;;15.10;99.90;;;;;;5019606;28;20286;-86
2023/07/05 04:03:04;;;;;;;4.87;3.47;;;15.10;99.90;;;;;;5034580;28;20706;-88
2023/07/05 04:05:31;;;;;;;6.03;3.50;;;15.00;99.90;;;;;;5033897;28;20550;-88
2023/07/05 04:07:58;;;;;;;5.97;3.27;;;15.00;99.90;;;;;;5034010;28;20249;-88
2023/07/05 04:10:25;;;;;;;7.30;3.00;;;15.00;99.90;;;;;;5034098;28;20272;-88
2023/07/05 04:12:52;;;;;;;7.93;3.30;;;15.00;99.90;;;;;;5034196;28;20202;-89
2023/07/05 04:15:20;;;;;;;5.33;2.90;;;15.00;99.90;;;;;;5034196;28;20205;-86
2023/07/05 04:17:48;;;;;;;5.93;2.43;;;15.00;99.90;;;;;;5033840;28;20212;-85
2023/07/05 04:20:15;;;;;;;3.87;2.17;;;15.00;99.90;;;;;;5033753;28;20215;-86
2023/07/05 04:22:43;;;;;;;4.73;1.80;;;14.90;99.90;;;;;;5033890;28;20281;-85
2023/07/05 04:25:10;;;;;;;8.27;2.27;;;14.90;99.90;;;;;;5033886;28;20288;-86
2023/07/05 04:27:38;;;;;;;9.73;2.67;;;14.90;99.90;;;;;;5034081;28;20269;-86
2023/07/05 04:30:06;;;;;;;7.13;2.37;;;14.80;99.90;;;;;;5033457;28;20286;-87
2023/07/05 04:32:33;;;;;;;10.43;2.73;;;14.80;99.90;;;;;;5023473;28;20228;-90
2023/07/05 04:35:01;;;;;;;13.63;2.90;;;14.70;99.90;;;;;;5013896;28;20199;-88
2023/07/05 04:37:28;;;;;;;13.63;2.80;;;14.70;99.90;;;;;;5014498;28;20551;-85
2023/07/05 04:39:55;;;;;;;9.20;2.77;;;14.80;99.90;;;;;;5013811;28;20199;-87
2023/07/05 04:42:22;;;;;;;16.17;2.83;;;14.70;99.90;;;;;;5015316;28;20207;-91
2023/07/05 04:44:49;;;;;;;13.90;2.70;;;14.70;99.90;;;;;;5014264;28;20250;-87
2023/07/05 04:47:16;;;;;;;8.97;2.63;;;14.80;99.90;;;;;;5014804;28;20271;-84
2023/07/05 04:49:45;;;;;;;14.87;3.37;;;14.70;99.90;;;;;;5017190;28;20225;-86
2023/07/05 04:52:13;;;;;;;10.70;3.43;;;14.80;99.90;;;;;;5034043;28;20218;-87
2023/07/05 04:54:40;;;;;;;13.20;3.10;;;14.80;99.90;;;;;;5020382;28;20282;-84
2023/07/05 04:57:07;;;;;;;12.87;2.70;;;14.80;99.90;;;;;;5013792;28;20199;-89
2023/07/05 04:59:34;;;;;;;9.97;2.47;;;14.90;99.90;;;;;;5014073;28;20199;-87
2023/07/05 05:02:02;;;;;;;12.87;2.80;;;14.80;99.90;;;;;;5013740;28;20191;-82
2023/07/05 05:04:29;;;;;;;9.07;3.50;;;14.80;99.90;;;;;;5027617;28;20205;-88
2023/07/05 05:06:56;;;;;;;12.23;3.47;;;14.70;99.90;;;;;;5033840;28;20590;-88
2023/07/05 05:09:24;;;;;;;6.27;2.43;;;14.70;99.90;;;;;;5033638;28;20237;-88
2023/07/05 05:11:51;;;;;;;13.10;3.63;;;14.60;99.90;;;;;;5025286;28;20250;-89
2023/07/05 05:14:18;;;;;;;20.10;4.67;;;14.60;99.90;;;;;;5017085;28;20282;-89
2023/07/05 05:16:45;;;;;;;17.43;3.30;;;14.60;99.90;;;;;;5017415;28;20311;-85
2023/07/05 05:19:12;;;;;;;12.60;2.20;;;14.50;99.90;;;;;;5018486;28;20509;-91
2023/07/05 05:21:39;;;;;;;14.47;2.63;;;14.40;99.90;;;;;;5037153;28;20206;-92
2023/07/05 05:24:06;;;;;;;13.33;2.87;;;14.40;99.90;;;;;;5037409;28;20297;-90
2023/07/05 05:26:35;;;;;;;16.20;3.43;;;14.40;99.90;;;;;;5023745;28;20227;-89
2023/07/05 05:29:02;;;;;;;10.93;2.40;;;14.40;99.90;;;;;;5017221;28;20290;-85
2023/07/05 05:31:30;;;;;;;13.73;2.90;;;14.30;99.90;;;;;;5016903;28;20828;-84
2023/07/05 05:33:57;;;;;;;16.10;3.97;;;14.20;99.90;;;;;;5017108;28;20797;-90
2023/07/05 05:36:25;;;;;;;17.17;4.17;;;14.20;99.90;;;;;;5016918;28;20211;-87
2023/07/05 05:38:52;;;;;;;20.40;4.07;;;14.10;99.90;;;;;;5017287;28;20206;-89
2023/07/05 05:41:19;;;;;;;21.07;4.10;;;14.00;99.90;;;;;;5017120;28;20203;-93
2023/07/05 05:43:49;;;;;;;20.83;3.93;;;14.00;99.90;;;;;;5025602;28;20237;-90
2023/07/05 05:46:17;;;;;;;18.87;3.63;;;13.90;99.90;;;;;;5036725;28;20242;-88
2023/07/05 05:48:44;;;;;;;19.63;4.53;;;13.70;99.90;;;;;;5036757;28;20226;-88
2023/07/05 05:51:11;;;;;;;10.63;3.03;;;13.50;99.90;;;;;;5036757;28;20282;-93
2023/07/05 05:53:38;;;;;;;21.40;3.33;;;13.30;99.90;;;;;;5025541;28;20211;-85
2023/07/05 05:56:05;;;;;;;20.10;3.67;;;13.20;99.90;;;;;;5016750;28;20270;-86
2023/07/05 05:58:32;;;;;;;20.73;4.53;;;13.10;99.90;;;;;;5030600;28;20510;-86
2023/07/05 06:01:01;;;;;;;24.43;4.40;;;13.00;99.90;;;;;;5036870;28;20637;-84
2023/07/05 06:03:28;;;;;;;20.33;4.73;;;12.90;99.90;;;;;;5027864;28;20575;-83
2023/07/05 06:05:55;;;;;;;26.00;4.53;;;12.90;99.90;;;;;;5015967;28;20247;-86
2023/07/05 06:08:22;;;;;;;13.43;3.70;;;12.80;99.90;;;;;;5026295;28;20203;-85
2023/07/05 06:10:55;;;;;;;16.77;4.20;;;12.80;99.90;;;;;;5034756;28;20194;-85
2023/07/05 06:13:22;;;;;;;18.13;4.20;;;12.80;99.90;;;;;;5036074;28;20637;-89
2023/07/05 06:15:54;;;;;;;31.97;6.97;;;12.80;99.90;;;;;;5035939;28;20203;-90
2023/07/05 06:18:22;;;;;;;46.43;9.77;;;12.90;99.90;;;;;;5018113;28;20282;-88
2023/07/05 06:20:49;;;;;;;48.20;9.50;;;13.20;99.90;;;;;;5034250;28;20285;-83
2023/07/05 06:23:18;;;;;;;64.40;11.57;;;13.40;99.90;;;;;;5055159;28;20198;-86
2023/07/05 06:25:47;;;;;;;47.03;10.83;;;13.50;99.90;;;;;;5034504;28;20226;-84
2023/07/05 06:28:14;;;;;;;60.80;13.07;;;13.60;99.90;;;;;;5035540;28;20202;-86
2023/07/05 06:30:41;;;;;;;63.57;13.97;;;13.70;99.90;;;;;;5022133;28;20207;-88
2023/07/05 06:33:08;;;;;;;59.63;14.50;;;13.80;99.90;;;;;;5015471;28;20196;-80
2023/07/05 06:35:37;;;;;;;59.80;12.50;;;13.90;99.90;;;;;;5015651;28;20735;-85
2023/07/05 06:38:04;;;;;;;66.03;13.23;;;13.90;99.90;;;;;;5022726;28;20572;-83
2023/07/05 06:40:31;;;;;;;56.43;11.87;;;14.00;99.90;;;;;;5034365;28;20634;-84
2023/07/05 06:43:00;;;;;;;56.10;12.70;;;14.00;99.90;;;;;;5035290;28;20187;-82
2023/07/05 06:45:27;;;;;;;52.87;11.93;;;13.90;99.90;;;;;;5034312;28;20274;-86
2023/07/05 06:47:54;;;;;;;62.43;15.63;;;14.00;99.90;;;;;;5034930;28;20215;-86
2023/07/05 06:50:21;;;;;;;62.37;14.53;;;14.00;99.90;;;;;;5028077;28;20278;-85
2023/07/05 06:52:49;;;;;;;56.03;11.70;;;14.00;99.90;;;;;;5015041;28;20212;-86
2023/07/05 06:55:16;;;;;;;60.67;11.70;;;14.00;99.90;;;;;;5014909;28;20287;-83
2023/07/05 06:57:43;;;;;;;63.80;12.70;;;14.00;99.90;;;;;;5015001;28;20203;-84
2023/07/05 07:00:11;;;;;;;59.07;14.17;;;14.00;99.90;;;;;;5014995;28;20199;-88
2023/07/05 07:02:38;;;;;;;64.07;12.73;;;14.00;99.90;;;;;;5015019;28;20760;-83
2023/07/05 07:05:06;;;;;;;47.37;10.37;;;13.90;99.90;;;;;;5026553;28;20360;-87
2023/07/05 07:07:33;;;;;;;53.83;10.77;;;13.90;99.90;;;;;;5033852;28;20202;-84
2023/07/05 07:10:02;;;;;;;53.40;11.40;;;13.90;99.90;;;;;;5034550;28;20551;-86
2023/07/05 07:12:29;;;;;;;46.80;11.13;;;13.80;99.90;;;;;;5017346;28;20211;-84
2023/07/05 07:14:57;;;;;;;41.20;8.63;;;13.80;99.90;;;;;;5019862;28;20272;-82
2023/07/05 07:17:24;;;;;;;42.40;9.67;;;13.70;99.90;;;;;;5033857;28;20518;-84
2023/07/05 07:19:52;;;;;;;47.13;10.27;;;13.70;99.90;;;;;;5026063;28;20265;-85
2023/07/05 07:22:22;;;;;;;50.50;12.30;;;13.70;99.90;;;;;;5014503;28;20231;-86
2023/07/05 07:24:50;;;;;;;46.50;9.53;;;13.70;99.90;;;;;;5020556;28;20633;-85
2023/07/05 07:27:19;;;;;;;37.27;8.80;;;13.70;99.90;;;;;;5034268;28;20225;-83
2023/07/05 07:29:46;;;;;;;40.63;8.73;;;13.70;99.90;;;;;;5028821;28;20516;-84
2023/07/05 07:32:13;;;;;;;41.33;9.07;;;13.70;99.90;;;;;;5034298;28;20695;-81
2023/07/05 07:34:40;;;;;;;39.63;8.10;;;13.70;99.90;;;;;;5033830;28;20250;-83
2023/07/05 07:37:07;;;;;;;50.53;9.00;;;13.70;99.90;;;;;;5014272;28;20648;-87
2023/07/05 07:39:34;;;;;;;38.13;8.40;;;13.70;99.90;;;;;;5025678;28;20561;-86
2023/07/05 07:42:01;;;;;;;48.80;9.93;;;13.70;99.90;;;;;;5033722;28;20300;-80
2023/07/05 07:44:30;;;;;;;45.07;8.93;;;13.60;99.90;;;;;;5017322;28;20258;-82
2023/07/05 07:46:58;;;;;;;45.67;8.77;;;13.70;99.90;;;;;;5013787;28;20715;-83
2023/07/05 07:49:25;;;;;;;46.93;9.17;;;13.70;99.90;;;;;;5021686;28;20282;-84
2023/07/05 07:51:53;;;;;;;54.00;10.80;;;13.70;99.90;;;;;;5033979;28;20658;-83
2023/07/05 07:54:26;;;;;;;36.97;9.30;;;13.80;99.90;;;;;;5033868;28;20576;-84
2023/07/05 07:56:55;;;;;;;40.20;9.97;;;13.80;99.90;;;;;;5033410;28;20277;-85
2023/07/05 07:59:22;;;;;;;47.70;9.90;;;13.80;99.90;;;;;;5033459;28;20511;-88
2023/07/05 08:01:51;;;;;;;37.17;7.37;;;13.80;99.90;;;;;;5033925;28;20531;-85
2023/07/05 08:04:18;;;;;;;43.00;8.10;;;13.80;99.90;;;;;;5033598;28;20299;-82
2023/07/05 08:06:48;;;;;;;42.77;8.43;;;13.70;99.90;;;;;;5030470;28;20413;-86
2023/07/05 08:09:16;;;;;;;45.10;9.50;;;13.70;99.90;;;;;;5033996;28;20210;-88
2023/07/05 08:11:43;;;;;;;44.40;10.37;;;13.70;99.90;;;;;;5028943;28;20236;-84
2023/07/05 08:14:13;;;;;;;42.23;7.90;;;13.70;99.90;;;;;;5025748;28;20201;-81
2023/07/05 08:16:40;;;;;;;39.93;7.80;;;13.70;99.90;;;;;;5035873;28;20573;-85
2023/07/05 08:19:09;;;;;;;29.63;8.03;;;13.80;99.90;;;;;;5033456;28;20285;-82
2023/07/05 08:21:36;;;;;;;41.63;8.53;;;13.80;99.90;;;;;;5029212;28;20285;-81
2023/07/05 08:24:04;;;;;;;42.90;7.13;;;13.80;99.90;;;;;;5030469;28;20579;-85
2023/07/05 08:26:31;;;;;;;25.00;5.97;;;13.80;99.90;;;;;;5032097;28;20218;-80
2023/07/05 08:28:58;;;;;;;22.23;5.43;;;13.80;99.90;;;;;;5027055;28;20674;-86
2023/07/05 08:31:25;;;;;;;24.97;5.30;;;13.70;99.90;;;;;;5033283;28;20190;-86
2023/07/05 08:33:52;;;;;;;29.70;6.87;;;13.70;99.90;;;;;;5033790;28;20209;-83
2023/07/05 08:36:31;;;;;;;26.83;6.67;;;13.80;99.90;;;;;;5030351;28;20286;-89
2023/07/05 08:38:59;;;;;;;31.63;7.47;;;13.70;99.90;;;;;;5033475;28;20602;-86
2023/07/05 08:41:35;;;;;;;29.80;6.60;;;13.80;99.90;;;;;;5031294;28;20618;-85
2023/07/05 08:44:14;;;;;;;31.03;6.57;;;13.80;99.90;;;;;;5031831;28;20187;-86
2023/07/05 08:46:42;;;;;;;34.17;5.57;;;13.70;99.90;;;;;;5048676;28;20560;-87
2023/07/05 08:49:13;;;;;;;27.50;5.13;;;13.70;99.90;;;;;;5055285;28;20638;-84
2023/07/05 08:51:42;;;;;;;28.20;6.37;;;13.70;99.90;;;;;;5074147;28;20185;-82
2023/07/05 08:54:16;;;;;;;23.00;5.83;;;13.70;99.90;;;;;;5076862;28;20201;-81
2023/07/05 08:56:47;;;;;;;29.10;6.00;;;13.70;99.90;;;;;;5043209;28;20274;-81
2023/07/05 08:59:21;;;;;;;23.00;5.27;;;13.70;99.90;;;;;;5037171;28;20217;-84
2023/07/05 09:01:52;;;;;;;26.63;6.83;;;13.70;99.90;;;;;;5037262;28;20199;-85
2023/07/05 09:04:24;;;;;;;23.20;5.47;;;13.70;99.90;;;;;;5036847;28;20214;-86
2023/07/05 09:06:59;;;;;;;21.10;5.27;;;13.80;99.90;;;;;;5042164;28;20234;-82
2023/07/05 09:09:37;;;;;;;27.90;6.37;;;13.90;99.90;;;;;;5037342;28;20222;-87
2023/07/05 09:12:12;;;;;;;19.93;5.93;;;13.90;99.90;;;;;;5053931;28;20201;-83
2023/07/05 09:15:02;;;;;;;26.97;6.40;;;14.00;99.90;;;;;;5055912;28;20631;-81
2023/07/05 09:17:35;;;;;;;29.63;6.30;;;14.00;99.90;;;;;;5036030;28;20193;-84
2023/07/05 09:20:14;;;;;;;31.07;7.70;;;14.00;99.90;;;;;;5041880;28;20197;-84
2023/07/05 09:22:43;;;;;;;21.70;5.00;;;14.00;99.90;;;;;;5056097;28;20206;-84
2023/07/05 09:25:15;;;;;;;18.17;5.30;;;14.00;99.90;;;;;;5053699;28;20536;-87
2023/07/05 09:27:46;;;;;;;16.97;5.27;;;14.00;99.90;;;;;;5042936;28;20245;-85
2023/07/05 09:30:15;;;;;;;22.60;5.30;;;14.00;99.90;;;;;;5042479;28;20194;-83
2023/07/05 09:32:46;;;;;;;24.20;6.40;;;14.00;99.90;;;;;;5061370;28;20825;-84
2023/07/05 09:35:16;;;;;;;27.57;5.03;;;14.10;99.90;;;;;;5053340;28;20182;-88
2023/07/05 09:37:53;;;;;;;22.57;4.90;;;14.10;99.90;;;;;;5036116;28;20187;-84
2023/07/05 09:40:25;;;;;;;21.07;5.07;;;14.10;99.90;;;;;;5047524;28;20193;-85
2023/07/05 09:42:56;;;;;;;19.83;4.57;;;14.10;99.90;;;;;;5076506;28;20249;-89
2023/07/05 09:45:23;;;;;;;16.87;4.63;;;14.20;99.90;;;;;;5056783;28;20268;-90
2023/07/05 09:48:03;;;;;;;16.07;3.80;;;14.20;99.90;;;;;;5036525;28;20597;-86
2023/07/05 09:50:31;;;;;;;23.70;6.13;;;14.20;99.90;;;;;;5039490;28;20205;-88
2023/07/05 09:53:04;;;;;;;26.23;5.57;;;14.20;99.90;;;;;;5057390;28;20285;-83
2023/07/05 09:55:32;;;;;;;17.93;4.60;;;14.20;99.90;;;;;;5075694;28;20228;-83
2023/07/05 09:57:59;;;;;;;24.40;5.27;;;14.20;99.90;;;;;;5075199;28;20202;-85
2023/07/05 10:00:32;;;;;;;24.43;5.57;;;14.20;99.90;;;;;;5075440;28;20193;-83
2023/07/05 10:03:10;;;;;;;21.77;5.20;;;14.20;99.90;;;;;;5035588;28;20229;-91
2023/07/05 10:05:38;;;;;;;20.87;4.90;;;14.10;99.90;;;;;;5035733;28;20214;-82
2023/07/05 10:08:16;;;;;;;13.67;4.33;;;14.10;99.90;;;;;;5048420;28;20225;-86
2023/07/05 10:10:43;;;;;;;13.77;4.23;;;14.00;99.90;;;;;;5054882;28;20247;-89
2023/07/05 10:13:15;;;;;;;22.53;5.07;;;14.10;99.90;;;;;;5054960;28;20230;-81
2023/07/05 10:15:43;;;;;;;19.30;4.87;;;14.10;99.90;;;;;;5055417;28;20206;-83
2023/07/05 10:18:26;;;;;;;17.83;4.30;;;14.00;99.90;;;;;;5040004;28;20294;-87
2023/07/05 10:20:54;;;;;;;17.07;4.30;;;14.10;99.90;;;;;;5035655;28;20249;-87
2023/07/05 10:23:23;;;;;;;17.03;4.70;;;14.10;99.90;;;;;;5018044;28;20206;-83
2023/07/05 10:25:53;;;;;;;18.07;4.53;;;14.10;99.90;;;;;;5035088;28;20274;-86
2023/07/05 10:28:26;;;;;;;16.00;4.30;;;14.20;99.90;;;;;;5049292;28;20249;-85
2023/07/05 10:30:55;;;;;;;15.40;4.30;;;14.20;99.90;;;;;;5054523;28;20194;-85
2023/07/05 10:33:25;;;;;;;22.77;5.67;;;14.30;99.90;;;;;;5055197;28;20255;-81
2023/07/05 10:35:58;;;;;;;18.27;4.40;;;14.30;99.90;;;;;;5055538;28;20202;-88
2023/07/05 10:38:29;;;;;;;16.97;5.07;;;14.30;99.90;;;;;;5055010;28;20243;-85
2023/07/05 19:29:20;;;;;;;5.95;3.10;;;16.60;99.90;;;;;;5492538;22;20532;-82
2023/07/05 19:31:47;;;;;;;5.55;2.85;;;16.50;99.90;;;;;;5066709;28;20250;-82
2023/07/05 19:34:14;;;;;;;4.43;2.65;;;16.50;99.90;;;;;;5092745;28;20224;-82
2023/07/05 19:36:41;;;;;;;4.38;2.90;;;16.50;99.90;;;;;;5093216;28;20239;-80
2023/07/05 19:39:08;;;;;;;5.28;3.15;;;16.40;99.90;;;;;;5108764;28;20227;-82
2023/07/05 19:41:36;;;;;;;6.55;3.00;;;16.40;99.90;;;;;;5085612;28;20208;-82
2023/07/05 19:44:03;;;;;;;6.32;3.55;;;16.40;99.90;;;;;;5101690;28;20604;-83
2023/07/05 19:46:33;;;;;;;10.32;3.67;;;16.40;99.90;;;;;;5080115;28;20293;-82
2023/07/05 19:49:03;;;;;;;6.55;3.88;;;16.30;99.90;;;;;;5086335;28;20305;-83
2023/07/05 19:51:31;;;;;;;4.20;3.13;;;16.40;99.90;;;;;;5072760;28;20220;-80
2023/07/05 19:53:58;;;;;;;5.90;3.70;;;16.30;99.90;;;;;;5086427;28;20200;-81
2023/07/05 19:56:25;;;;;;;4.65;3.13;;;16.30;99.90;;;;;;5110633;28;20652;-79
2023/07/05 19:58:52;;;;;;;4.82;3.13;;;16.40;99.90;;;;;;5084463;28;20217;-80
2023/07/05 20:01:20;;;;;;;3.42;2.97;;;16.30;99.90;;;;;;5092720;28;20220;-81
2023/07/05 20:03:48;;;;;;;7.07;3.08;;;16.30;99.90;;;;;;5092159;28;20481;-81
2023/07/05 20:06:16;;;;;;;4.68;3.03;;;16.30;99.90;;;;;;5091174;28;20226;-81
2023/07/05 20:08:44;;;;;;;2.90;2.00;;;16.30;99.90;;;;;;5091289;28;20307;-83
2023/07/05 20:11:14;;;;;;;4.38;2.05;;;16.30;99.90;;;;;;5092107;28;20596;-82
2023/07/05 20:13:41;;;;;;;3.05;2.35;;;16.30;99.90;;;;;;5090283;28;20209;-83
2023/07/05 20:16:09;;;;;;;5.30;2.78;;;16.30;99.90;;;;;;5083508;28;20208;-81
2023/07/05 21:58:28;;;;;;;4.10;2.45;;;15.20;99.90;;;;;;5461239;22;20241;-80
2023/07/05 22:00:56;;;;;;;5.47;2.47;;;15.30;99.90;;;;;;5035329;28;20590;-83
2023/07/05 22:03:24;;;;;;;3.40;2.22;;;15.30;99.90;;;;;;5035511;28;20206;-82
2023/07/05 22:05:55;;;;;;;3.05;2.03;;;15.30;99.90;;;;;;5050974;28;20594;-83
2023/07/05 22:08:24;;;;;;;3.10;2.43;;;15.30;99.90;;;;;;5054520;28;20634;-83
2023/07/05 22:10:53;;;;;;;4.80;2.00;;;15.30;99.90;;;;;;5054864;28;20194;-82
2023/07/05 22:13:20;;;;;;;3.50;1.93;;;15.30;99.90;;;;;;5055601;28;20208;-82
2023/07/05 22:15:49;;;;;;;2.07;1.80;;;15.40;99.90;;;;;;5054656;28;20610;-81
2023/07/05 22:18:17;;;;;;;2.40;2.00;;;15.40;99.90;;;;;;5055440;28;20198;-83
2023/07/05 22:20:44;;;;;;;3.72;1.80;;;15.30;99.90;;;;;;5053568;28;20648;-82
2023/07/05 22:23:11;;;;;;;3.25;1.90;;;15.40;99.90;;;;;;5054451;28;20204;-83
2023/07/05 22:25:39;;;;;;;4.30;2.00;;;15.30;99.90;;;;;;5055217;28;20233;-83
2023/07/05 22:28:06;;;;;;;2.47;1.80;;;15.30;99.90;;;;;;5055508;28;20221;-82
2023/07/05 22:30:33;;;;;;;3.90;1.80;;;15.40;99.90;;;;;;5054353;28;20194;-83
2023/07/05 22:33:01;;;;;;;4.05;1.90;;;15.40;99.90;;;;;;5035678;28;20206;-82
2023/07/05 22:35:29;;;;;;;2.25;1.80;;;15.40;99.90;;;;;;5034716;28;20198;-83
2023/07/05 22:37:56;;;;;;;4.37;2.07;;;15.40;99.90;;;;;;5034906;28;20199;-81
2023/07/05 22:40:24;;;;;;;6.13;2.00;;;15.40;99.90;;;;;;5034744;28;20195;-83
2023/07/05 22:42:51;;;;;;;5.35;2.58;;;15.40;99.90;;;;;;5035128;28;20253;-83
2023/07/05 22:45:18;;;;;;;5.07;2.30;;;15.40;99.90;;;;;;5034638;28;20233;-82
2023/07/05 22:47:46;;;;;;;6.32;2.10;;;15.30;99.90;;;;;;5052765;28;20249;-81
2023/07/05 22:50:15;;;;;;;4.73;2.40;;;15.40;99.90;;;;;;5065153;28;20217;-83
2023/07/05 22:52:42;;;;;;;4.90;2.37;;;15.30;99.90;;;;;;5074771;28;20197;-82
2023/07/05 22:55:09;;;;;;;8.13;3.50;;;15.40;99.90;;;;;;5063324;28;20205;-82
2023/07/05 22:57:36;;;;;;;6.55;2.50;;;15.30;99.90;;;;;;5060150;28;20275;-82
2023/07/05 23:00:16;;;;;;;6.15;2.28;;;15.30;99.90;;;;;;5079204;28;20196;-81
2023/07/05 23:02:44;;;;;;;4.80;2.55;;;15.30;99.90;;;;;;5094317;28;20232;-82
2023/07/05 23:05:12;;;;;;;4.80;2.55;;;15.20;99.90;;;;;;5093075;28;20196;-82
2023/07/05 23:07:40;;;;;;;4.88;2.40;;;15.30;99.90;;;;;;5094354;28;20578;-82
2023/07/05 23:10:08;;;;;;;5.47;2.40;;;15.20;99.90;;;;;;5084197;28;20208;-82
2023/07/05 23:12:36;;;;;;;8.77;3.03;;;15.20;99.90;;;;;;5073720;28;20221;-83
2023/07/05 23:15:06;;;;;;;9.23;3.15;;;15.20;99.90;;;;;;5073952;28;20205;-82
2023/07/05 23:17:35;;;;;;;4.53;2.88;;;15.20;99.90;;;;;;5073527;28;20185;-82